Main page
METAR-TAF:

METAR-TAF

Airports :

Khajuraho Airport

Khajuraho, India

latitude: 24-49-02N, longitude: 79-55-07E, elevation: 222 m

Current weather observation

The report was made 13 hours and 37 minutes ago, at 12:00 UTC
Wind 2 kt from the Northeast
Temperature 22°C
Humidity 60%
Pressure 1012 hPa
Visibility: 2500 m
haze

METAR: VEKO 111200Z 05002KT 2500 HZ NSC 22/14 Q1012

Time: 07:07 (01:37 UTC)

Forecast

The report was made 8 hours and 37 minutes ago, at 17:00 UTC
Forecast valid from 11 at 18 UTC to 12 at 03 UTC
Wind 5 kt from the Northeast
Visibility: 2000 m
mist, haze
Becoming
from 12 at 00 UTC to 12 at 02 UTC
Visibility: 1000 m
Shallow fog

TAF: VEKO 111700Z 1118/1203 05005KT 2000 BR HZ NSC BECMG 1200/1202 1000 MIFG NSC

Weather observations and forecasts of more than 4000 airports (METAR and TAF reports).

The available stations are represented by yellow and red dots on the map.

Hover mouse over dot to see the name of the station.

Then click to see weather observations and forecasts.

To change the map : click on the green buttons with a black cross to zoom in, on the green button with a dash to zoom out, or on the green arrows for adjacent maps.


METAR-TAF: